createdAt,value
2023-05-21T00:02:17.562Z,74.63
2023-05-21T00:04:48.806Z,74.62
2023-05-21T00:07:21.196Z,74.41
2023-05-21T00:09:53.368Z,74.36
2023-05-21T00:12:25.630Z,74.27
2023-05-21T00:14:58.134Z,74.47
2023-05-21T00:17:30.562Z,74.46
2023-05-21T00:20:07.242Z,74.84
2023-05-21T00:22:40.395Z,74.45
2023-05-21T00:25:13.838Z,74.75
2023-05-21T00:27:46.014Z,74.41
2023-05-21T00:30:18.333Z,74.83
2023-05-21T00:32:50.728Z,74.70
2023-05-21T00:35:22.990Z,75.01
2023-05-21T00:37:55.510Z,74.56
2023-05-21T00:40:27.739Z,74.71
2023-05-21T00:42:59.911Z,74.78
2023-05-21T00:45:32.360Z,74.82
2023-05-21T00:48:06.523Z,75.17
2023-05-21T00:50:39.841Z,75.20
2023-05-21T00:53:12.102Z,75.13
2023-05-21T00:55:44.391Z,74.85
2023-05-21T00:58:17.912Z,75.01
2023-05-21T01:00:50.644Z,75.01
2023-05-21T01:03:23.630Z,75.08
2023-05-21T01:06:00.039Z,75.10
2023-05-21T01:08:34.874Z,75.26
2023-05-21T01:11:08.359Z,75.05
2023-05-21T01:13:42.513Z,75.03
2023-05-21T01:16:15.394Z,74.83
2023-05-21T01:18:47.979Z,74.96
2023-05-21T01:21:21.782Z,75.24
2023-05-21T01:23:54.017Z,75.02
2023-05-21T01:26:26.339Z,74.98
2023-05-21T01:28:59.045Z,75.01
2023-05-21T01:31:35.544Z,74.92
2023-05-21T01:34:12.239Z,75.02
2023-05-21T01:36:55.964Z,74.92
2023-05-21T01:39:33.193Z,75.23
2023-05-21T01:42:07.901Z,75.31
2023-05-21T01:44:42.149Z,75.52
2023-05-21T01:47:15.214Z,75.39
2023-05-21T01:49:48.412Z,75.14
2023-05-21T01:52:21.434Z,75.20
2023-05-21T01:54:54.435Z,75.07
2023-05-21T01:57:26.832Z,75.15
2023-05-21T02:00:01.226Z,75.06
2023-05-21T02:02:33.538Z,74.67
2023-05-21T02:05:06.583Z,74.64
2023-05-21T02:07:40.468Z,74.68
2023-05-21T02:10:14.548Z,75.05
2023-05-21T02:12:47.253Z,74.93
2023-05-21T02:15:19.574Z,74.90
2023-05-21T02:17:53.172Z,74.85
2023-05-21T02:20:25.974Z,74.93
2023-05-21T02:22:59.256Z,74.79
2023-05-21T02:25:31.541Z,74.76
2023-05-21T02:28:03.908Z,75.12
2023-05-21T02:30:36.643Z,75.02
2023-05-21T02:33:09.858Z,75.41
2023-05-21T02:35:42.328Z,75.46
2023-05-21T02:38:14.770Z,75.29
2023-05-21T02:40:47.397Z,74.86
2023-05-21T02:43:19.898Z,75.00
2023-05-21T02:45:52.708Z,75.32
2023-05-21T02:48:25.477Z,75.74
2023-05-21T02:50:57.948Z,76.02
2023-05-21T02:53:31.196Z,75.69
2023-05-21T02:56:03.869Z,75.95
2023-05-21T02:58:36.374Z,76.53
2023-05-21T03:01:08.916Z,76.39
2023-05-21T03:03:41.527Z,76.52
2023-05-21T03:06:14.358Z,76.51
2023-05-21T03:08:46.798Z,76.15
2023-05-21T03:11:19.721Z,76.36
2023-05-21T03:13:52.334Z,76.78
2023-05-21T03:16:24.584Z,76.61
2023-05-21T03:18:57.078Z,76.55
2023-05-21T03:21:30.335Z,76.87
2023-05-21T03:24:03.346Z,76.98
2023-05-21T03:26:35.892Z,76.85
2023-05-21T03:29:08.261Z,77.02
2023-05-21T03:31:41.090Z,77.12
2023-05-21T03:34:14.178Z,77.18
2023-05-21T03:36:46.378Z,77.30
2023-05-21T03:39:19.165Z,77.42
2023-05-21T03:41:51.381Z,77.34
2023-05-21T03:44:33.052Z,77.53
2023-05-21T03:47:23.550Z,77.23
2023-05-21T03:49:56.469Z,77.33
2023-05-21T03:52:28.941Z,77.81
2023-05-21T03:55:02.658Z,77.84
2023-05-21T03:57:35.149Z,78.12
2023-05-21T04:00:10.103Z,78.08
2023-05-21T04:02:48.350Z,78.40
2023-05-21T04:05:22.049Z,78.24
2023-05-21T04:07:54.296Z,78.48
2023-05-21T04:10:27.089Z,78.81
2023-05-21T04:12:59.858Z,79.12
2023-05-21T04:15:32.621Z,78.73
2023-05-21T04:18:05.205Z,79.05
2023-05-21T04:20:37.801Z,79.04
2023-05-21T04:23:10.643Z,78.72
2023-05-21T04:25:43.124Z,78.75
2023-05-21T04:28:20.461Z,78.55
2023-05-21T04:30:53.120Z,78.96
2023-05-21T04:33:25.810Z,78.71
2023-05-21T04:35:59.096Z,78.20
2023-05-21T04:38:31.482Z,78.41
2023-05-21T04:41:04.345Z,78.08
2023-05-21T04:43:36.860Z,78.33
2023-05-21T04:46:09.304Z,78.16
2023-05-21T04:48:42.345Z,78.20
2023-05-21T04:51:15.172Z,78.05
2023-05-21T04:53:48.209Z,77.87
2023-05-21T04:56:21.916Z,77.51
2023-05-21T04:58:54.284Z,77.75
2023-05-21T05:01:27.393Z,77.56
2023-05-21T05:04:00.033Z,77.34
2023-05-21T05:06:33.182Z,77.24
2023-05-21T05:09:05.688Z,77.63
2023-05-21T05:11:38.025Z,77.17
2023-05-21T05:14:10.341Z,77.14
2023-05-21T05:16:43.203Z,77.04
2023-05-21T05:19:15.632Z,76.94
2023-05-21T05:21:48.445Z,76.16
2023-05-21T05:24:21.347Z,76.06
2023-05-21T05:26:53.827Z,76.14
2023-05-21T05:29:27.102Z,75.65
2023-05-21T05:31:59.292Z,75.77
2023-05-21T05:34:32.451Z,75.79
2023-05-21T05:37:04.741Z,75.29
2023-05-21T05:39:37.989Z,75.59
2023-05-21T05:42:10.445Z,75.30
2023-05-21T05:44:43.278Z,75.76
2023-05-21T05:47:15.744Z,75.60
2023-05-21T05:49:48.153Z,75.75
2023-05-21T05:52:20.592Z,74.68
2023-05-21T05:54:52.776Z,74.50
2023-05-21T05:57:25.554Z,74.48
2023-05-21T05:59:58.388Z,74.36
2023-05-21T06:02:31.022Z,74.24
2023-05-21T06:05:04.234Z,73.72
2023-05-21T06:07:37.188Z,73.01
2023-05-21T06:10:10.404Z,72.48
2023-05-21T06:12:42.502Z,72.59
2023-05-21T06:15:16.631Z,72.08
2023-05-21T06:17:49.037Z,71.93
2023-05-21T06:20:21.501Z,71.79
2023-05-21T06:22:54.132Z,71.71
2023-05-21T06:25:27.136Z,70.99
2023-05-21T06:27:59.720Z,70.99
2023-05-21T06:30:32.878Z,70.52
2023-05-21T06:33:05.235Z,70.26
2023-05-21T06:35:39.276Z,70.13
2023-05-21T06:38:12.828Z,70.16
2023-05-21T06:40:47.546Z,70.01
2023-05-21T06:43:24.298Z,70.07
2023-05-21T06:46:31.493Z,69.46
2023-05-21T06:49:07.047Z,68.95
2023-05-21T06:51:39.515Z,69.18
2023-05-21T06:54:11.685Z,68.44
2023-05-21T06:56:45.140Z,68.43
2023-05-21T06:59:20.328Z,68.71
2023-05-21T07:01:53.419Z,68.16
2023-05-21T07:04:26.155Z,67.25
2023-05-21T07:06:58.292Z,67.58
2023-05-21T07:09:30.834Z,67.56
2023-05-21T07:12:03.243Z,67.04
2023-05-21T07:14:35.586Z,66.71
2023-05-21T07:17:08.138Z,67.01
2023-05-21T07:19:41.187Z,65.98
2023-05-21T07:22:14.629Z,65.72
2023-05-21T07:24:47.403Z,65.58
2023-05-21T07:27:25.794Z,65.42
2023-05-21T07:29:59.818Z,65.25
2023-05-21T07:32:32.482Z,65.59
2023-05-21T07:35:05.434Z,65.37
2023-05-21T07:37:38.051Z,65.51
2023-05-21T07:40:12.524Z,65.44
2023-05-21T07:42:44.913Z,65.51
2023-05-21T07:45:17.400Z,64.29
2023-05-21T07:47:50.089Z,62.40
2023-05-21T07:50:22.638Z,62.92
2023-05-21T07:52:54.902Z,62.40
2023-05-21T07:55:27.297Z,63.47
2023-05-21T07:58:00.105Z,63.25
2023-05-21T08:00:47.609Z,63.35
2023-05-21T08:03:21.094Z,62.67
2023-05-21T08:05:55.057Z,64.92
2023-05-21T08:08:28.029Z,62.28
2023-05-21T08:11:01.987Z,61.28
2023-05-21T08:13:34.754Z,60.57
2023-05-21T08:16:08.793Z,61.26
2023-05-21T08:18:41.345Z,61.31
2023-05-21T08:21:13.735Z,61.25
2023-05-21T08:23:46.185Z,60.59
2023-05-21T08:26:18.471Z,60.20
2023-05-21T08:28:50.884Z,59.76
2023-05-21T08:31:23.802Z,59.89
2023-05-21T08:33:57.507Z,58.62
2023-05-21T08:36:43.254Z,58.77
2023-05-21T08:39:26.946Z,57.78
2023-05-21T08:42:06.028Z,57.53
2023-05-21T08:44:42.197Z,58.97
2023-05-21T08:47:17.742Z,57.93
2023-05-21T08:49:51.429Z,57.66
2023-05-21T08:52:23.886Z,58.60
2023-05-21T08:54:57.860Z,57.93
2023-05-21T08:57:31.723Z,57.18
2023-05-21T09:00:07.405Z,57.00
2023-05-21T09:02:43.798Z,55.64
2023-05-21T09:05:17.689Z,56.13
2023-05-21T09:07:56.903Z,55.40
2023-05-21T09:11:07.875Z,53.88
2023-05-21T09:13:44.882Z,53.13
2023-05-21T09:16:22.501Z,53.67
2023-05-21T09:18:55.428Z,54.27
2023-05-21T09:21:33.291Z,53.98
2023-05-21T09:24:12.358Z,52.85
2023-05-21T09:26:46.462Z,52.53
2023-05-21T09:29:18.864Z,51.92
2023-05-21T09:31:51.420Z,50.64
2023-05-21T09:34:26.237Z,52.56
2023-05-21T09:37:01.657Z,51.98
2023-05-21T09:39:34.319Z,49.70
2023-05-21T09:42:08.572Z,49.47
2023-05-21T09:44:41.361Z,50.31
2023-05-21T09:47:13.721Z,49.06
2023-05-21T09:49:46.858Z,49.19
2023-05-21T09:52:26.450Z,50.24
2023-05-21T09:54:58.732Z,49.48
2023-05-21T09:57:32.015Z,48.34
2023-05-21T10:00:06.583Z,47.82
2023-05-21T10:02:48.118Z,46.80
2023-05-21T10:05:21.575Z,49.39
2023-05-21T10:07:57.249Z,49.02
2023-05-21T10:10:31.980Z,47.24
2023-05-21T10:13:07.967Z,47.21
2023-05-21T10:15:43.794Z,48.83
2023-05-21T10:18:16.853Z,47.80
2023-05-21T10:20:50.333Z,47.82
2023-05-21T10:23:24.657Z,47.07
2023-05-21T10:25:59.461Z,46.12
2023-05-21T10:28:33.721Z,43.59
2023-05-21T10:31:06.681Z,44.73
2023-05-21T10:33:40.166Z,44.73
2023-05-21T10:36:12.855Z,43.55
2023-05-21T10:38:46.654Z,44.29
2023-05-21T10:41:21.966Z,44.96
2023-05-21T10:44:03.932Z,45.38
2023-05-21T10:46:55.528Z,45.03
2023-05-21T10:49:47.112Z,45.31
2023-05-21T10:52:32.332Z,44.79
2023-05-21T10:55:31.820Z,45.52
2023-05-21T10:58:30.026Z,44.28
2023-05-21T11:01:03.611Z,44.90
2023-05-21T11:03:37.753Z,44.31
2023-05-21T11:06:11.716Z,42.75
2023-05-21T11:08:55.344Z,41.37
2023-05-21T11:11:48.618Z,43.04
2023-05-21T11:14:32.928Z,42.33
2023-05-21T11:17:11.189Z,42.44
2023-05-21T11:19:44.528Z,42.02
2023-05-21T11:22:27.021Z,41.63
2023-05-21T11:25:04.240Z,41.93
2023-05-21T11:27:37.647Z,42.80
2023-05-21T11:30:11.719Z,42.48
2023-05-21T11:33:22.241Z,42.46
2023-05-21T11:36:01.450Z,43.19
2023-05-21T11:38:34.552Z,43.84
2023-05-21T11:41:10.352Z,43.75
2023-05-21T11:43:44.832Z,43.06
2023-05-21T11:46:17.656Z,42.84
2023-05-21T11:48:52.035Z,43.66
2023-05-21T11:51:24.908Z,43.24
2023-05-21T11:53:57.347Z,43.20
2023-05-21T11:56:31.992Z,43.40
2023-05-21T11:59:06.484Z,42.81
2023-05-21T12:01:39.398Z,43.33
2023-05-21T12:04:12.662Z,42.51
2023-05-21T12:06:48.478Z,42.70
2023-05-21T12:09:21.369Z,43.48
2023-05-21T12:11:54.333Z,42.68
2023-05-21T12:14:26.668Z,41.87
2023-05-21T12:16:59.508Z,41.03
2023-05-21T12:19:33.409Z,41.82
2023-05-21T12:22:07.581Z,40.26
2023-05-21T12:24:40.535Z,40.72
2023-05-21T12:27:16.753Z,40.20
2023-05-21T12:29:52.821Z,40.21
2023-05-21T12:32:28.682Z,41.23
2023-05-21T12:35:01.279Z,42.13
2023-05-21T12:37:35.761Z,40.02
2023-05-21T12:40:12.025Z,39.67
2023-05-21T12:42:46.114Z,39.15
2023-05-21T12:45:22.737Z,41.10
2023-05-21T12:47:56.599Z,41.20
2023-05-21T12:50:29.285Z,40.16
2023-05-21T12:53:02.277Z,40.39
2023-05-21T12:55:36.795Z,40.05
2023-05-21T12:58:09.533Z,40.86
2023-05-21T13:00:45.553Z,41.59
2023-05-21T13:03:17.990Z,40.76
2023-05-21T13:05:59.121Z,40.12
2023-05-21T13:08:31.608Z,41.14
2023-05-21T13:11:04.430Z,43.21
2023-05-21T13:13:37.112Z,41.59
2023-05-21T13:16:10.178Z,43.52
2023-05-21T13:18:42.608Z,42.30
2023-05-21T13:21:14.889Z,42.17
2023-05-21T13:23:47.189Z,41.97
2023-05-21T13:26:19.541Z,42.36
2023-05-21T13:28:51.726Z,41.71
2023-05-21T13:31:24.280Z,41.26
2023-05-21T13:33:56.603Z,40.15
2023-05-21T13:36:28.865Z,39.73
2023-05-21T13:39:01.202Z,41.06
2023-05-21T13:41:34.091Z,41.95
2023-05-21T13:44:07.176Z,41.54
2023-05-21T13:46:39.576Z,40.79
2023-05-21T13:49:11.904Z,39.88
2023-05-21T13:51:44.345Z,40.31
2023-05-21T13:54:16.522Z,40.38
2023-05-21T13:56:48.916Z,39.10
2023-05-21T13:59:21.379Z,39.60
2023-05-21T14:01:53.780Z,40.20
2023-05-21T14:04:26.271Z,39.11
2023-05-21T14:06:58.593Z,39.43
2023-05-21T14:09:30.996Z,39.57
2023-05-21T14:12:06.418Z,39.56
2023-05-21T14:14:39.127Z,40.81
2023-05-21T14:17:11.316Z,39.72
2023-05-21T14:19:43.870Z,39.76
2023-05-21T14:22:16.040Z,39.58
2023-05-21T14:24:48.086Z,40.29
2023-05-21T14:27:20.308Z,39.80
2023-05-21T14:29:52.661Z,41.12
2023-05-21T14:32:25.057Z,41.93
2023-05-21T14:34:59.493Z,41.30
2023-05-21T14:37:31.568Z,41.15
2023-05-21T14:40:05.569Z,40.64
2023-05-21T14:42:38.295Z,41.38
2023-05-21T14:45:19.019Z,41.67
2023-05-21T14:47:51.821Z,41.19
2023-05-21T14:50:24.142Z,41.95
2023-05-21T14:52:56.847Z,42.12
2023-05-21T14:55:29.743Z,42.46
2023-05-21T14:58:02.116Z,42.24
2023-05-21T15:00:35.402Z,41.84
2023-05-21T15:03:07.992Z,42.06
2023-05-21T15:05:40.400Z,44.18
2023-05-21T15:08:12.717Z,42.91
2023-05-21T15:10:44.957Z,42.15
2023-05-21T15:13:17.195Z,40.89
2023-05-21T15:15:50.303Z,42.95
2023-05-21T15:18:24.753Z,42.74
2023-05-21T15:20:57.137Z,41.86
2023-05-21T15:23:29.309Z,40.98
2023-05-21T15:26:01.609Z,40.16
2023-05-21T15:28:33.826Z,39.80
2023-05-21T15:31:06.547Z,39.61
2023-05-21T15:33:38.881Z,38.80
2023-05-21T15:36:11.909Z,38.41
2023-05-21T15:38:44.349Z,39.38
2023-05-21T15:41:17.025Z,37.96
2023-05-21T15:43:50.053Z,38.70
2023-05-21T15:46:22.731Z,38.11
2023-05-21T15:48:54.838Z,38.24
2023-05-21T15:51:27.232Z,37.80
2023-05-21T15:53:59.554Z,38.50
2023-05-21T15:56:31.904Z,39.03
2023-05-21T15:59:04.072Z,39.11
2023-05-21T16:01:36.503Z,38.98
2023-05-21T16:04:09.287Z,38.45
2023-05-21T16:06:41.790Z,38.51
2023-05-21T16:09:14.120Z,38.78
2023-05-21T16:11:46.294Z,39.17
2023-05-21T16:14:19.354Z,37.70
2023-05-21T16:16:51.964Z,38.60
2023-05-21T16:19:24.320Z,39.18
2023-05-21T16:21:57.163Z,38.77
2023-05-21T16:24:29.333Z,39.87
2023-05-21T16:27:01.697Z,39.87
2023-05-21T16:29:34.028Z,40.17
2023-05-21T16:32:07.154Z,39.72
2023-05-21T16:34:39.560Z,39.31
2023-05-21T16:37:12.344Z,40.98
2023-05-21T16:39:44.371Z,41.81
2023-05-21T16:42:16.484Z,41.67
2023-05-21T16:44:48.781Z,42.33
2023-05-21T16:47:21.587Z,42.26
2023-05-21T16:49:55.878Z,42.85
2023-05-21T16:52:28.944Z,43.34
2023-05-21T16:55:01.294Z,43.42
2023-05-21T16:57:33.699Z,42.64
2023-05-21T17:00:07.771Z,42.34
2023-05-21T17:02:41.270Z,42.43
2023-05-21T17:05:13.657Z,42.05
2023-05-21T17:07:46.320Z,42.96
2023-05-21T17:10:19.920Z,42.38
2023-05-21T17:12:52.710Z,42.31
2023-05-21T17:15:25.854Z,42.77
2023-05-21T17:17:58.405Z,42.39
2023-05-21T17:20:30.835Z,42.27
2023-05-21T17:23:03.378Z,43.27
2023-05-21T17:25:36.151Z,43.58
2023-05-21T17:28:08.524Z,44.23
2023-05-21T17:30:40.846Z,43.47
2023-05-21T17:33:13.279Z,43.17
2023-05-21T17:35:45.945Z,43.70
2023-05-21T17:38:18.290Z,43.15
2023-05-21T17:40:50.789Z,43.07
2023-05-21T17:43:23.509Z,42.50
2023-05-21T17:45:55.674Z,42.24
2023-05-21T17:48:28.121Z,41.93
2023-05-21T17:51:00.230Z,42.02
2023-05-21T17:53:32.448Z,41.14
2023-05-21T17:56:04.955Z,41.28
2023-05-21T17:58:37.657Z,41.21
2023-05-21T18:01:10.018Z,40.89
2023-05-21T18:03:42.629Z,40.75
2023-05-21T18:06:15.039Z,40.71
2023-05-21T18:08:47.382Z,41.43
2023-05-21T18:11:19.651Z,41.65
2023-05-21T18:13:51.943Z,41.29
2023-05-21T18:16:24.656Z,41.59
2023-05-21T18:18:57.325Z,41.52
2023-05-21T18:21:29.574Z,41.69
2023-05-21T18:24:02.890Z,42.02
2023-05-21T18:26:35.763Z,41.83
2023-05-21T18:29:10.892Z,41.45
2023-05-21T18:31:44.530Z,41.23
2023-05-21T18:34:17.540Z,41.65
2023-05-21T18:36:49.838Z,41.37
2023-05-21T18:39:24.865Z,42.06
2023-05-21T18:44:32.922Z,41.99
2023-05-21T18:47:06.138Z,42.05
2023-05-21T18:49:38.814Z,42.49
2023-05-21T18:52:11.161Z,42.05
2023-05-21T18:54:43.375Z,42.36
2023-05-21T18:57:15.898Z,42.76
2023-05-21T18:59:48.426Z,43.26
2023-05-21T19:02:20.799Z,42.89
2023-05-21T19:04:53.247Z,43.22
2023-05-21T19:07:25.463Z,43.37
2023-05-21T19:09:57.842Z,43.86
2023-05-21T19:12:31.481Z,44.20
2023-05-21T19:15:03.727Z,43.97
2023-05-21T19:17:36.588Z,43.92
2023-05-21T19:20:11.539Z,43.99
2023-05-21T19:22:43.937Z,43.69
2023-05-21T19:25:17.436Z,43.65
2023-05-21T19:27:49.870Z,43.56
2023-05-21T19:30:23.158Z,43.49
2023-05-21T19:32:55.589Z,43.31
2023-05-21T19:35:28.031Z,43.79
2023-05-21T19:38:03.296Z,43.62
2023-05-21T19:40:37.944Z,44.02
2023-05-21T19:43:10.396Z,43.74
2023-05-21T19:45:43.181Z,44.12
2023-05-21T19:48:16.146Z,44.65
2023-05-21T19:50:49.033Z,44.28
2023-05-21T19:53:21.381Z,44.06
2023-05-21T19:55:53.614Z,44.29
2023-05-21T19:58:29.552Z,44.12
2023-05-21T20:01:03.644Z,44.24
2023-05-21T20:03:37.182Z,43.89
2023-05-21T20:06:09.616Z,43.81
2023-05-21T20:08:41.940Z,43.92
2023-05-21T20:11:14.300Z,43.73
2023-05-21T20:13:50.221Z,44.25
2023-05-21T20:16:23.266Z,44.41
2023-05-21T20:18:58.400Z,44.58
2023-05-21T20:21:32.743Z,45.21
2023-05-21T20:24:05.118Z,45.45
2023-05-21T20:26:37.642Z,45.22
2023-05-21T20:29:10.075Z,45.46
2023-05-21T20:31:42.667Z,45.31
2023-05-21T20:34:17.753Z,45.44
2023-05-21T20:36:50.232Z,45.46
2023-05-21T20:39:23.049Z,45.65
2023-05-21T20:41:55.362Z,45.57
2023-05-21T20:44:28.878Z,45.39
2023-05-21T20:47:04.800Z,45.84
2023-05-21T20:49:38.457Z,45.78
2023-05-21T20:52:11.145Z,46.09
2023-05-21T20:54:46.597Z,46.11
2023-05-21T20:57:19.322Z,46.73
2023-05-21T20:59:52.426Z,46.66
2023-05-21T21:02:25.580Z,46.50
2023-05-21T21:04:58.066Z,46.79
2023-05-21T21:07:33.545Z,46.72
2023-05-21T21:10:06.883Z,47.49
2023-05-21T21:12:39.556Z,47.60
2023-05-21T21:15:12.893Z,47.78
2023-05-21T21:17:45.669Z,47.60
2023-05-21T21:20:19.428Z,47.54
2023-05-21T21:22:52.724Z,48.28
2023-05-21T21:25:25.231Z,47.90
2023-05-21T21:27:57.668Z,47.70
2023-05-21T21:30:29.936Z,47.86
2023-05-21T21:33:02.847Z,47.73
2023-05-21T21:35:35.187Z,47.42
2023-05-21T21:38:07.429Z,48.04
2023-05-21T21:40:39.580Z,47.54
2023-05-21T21:43:11.945Z,47.56
2023-05-21T21:45:44.368Z,47.55
2023-05-21T21:48:16.885Z,47.49
2023-05-21T21:50:49.456Z,47.61
2023-05-21T21:53:21.883Z,47.59
2023-05-21T21:55:55.162Z,47.86
2023-05-21T21:58:27.568Z,47.91
2023-05-21T22:01:00.219Z,47.86
2023-05-21T22:03:35.137Z,47.93
2023-05-21T22:06:05.854Z,48.53
2023-05-21T22:08:38.417Z,48.53
2023-05-21T22:11:11.651Z,48.86
2023-05-21T22:13:44.347Z,49.10
2023-05-21T22:16:16.978Z,48.72
2023-05-21T22:18:50.759Z,48.69
2023-05-21T22:21:27.970Z,48.37
2023-05-21T22:24:00.998Z,49.13
2023-05-21T22:26:33.418Z,49.18
2023-05-21T22:29:05.668Z,49.12
2023-05-21T22:31:38.844Z,48.99
2023-05-21T22:34:11.161Z,49.89
2023-05-21T22:36:44.764Z,50.39
2023-05-21T22:39:17.031Z,51.22
2023-05-21T22:41:49.326Z,51.48
2023-05-21T22:44:21.825Z,52.00
2023-05-21T22:46:54.596Z,52.34
2023-05-21T22:49:27.008Z,52.37
2023-05-21T22:52:05.057Z,52.59
2023-05-21T22:54:37.766Z,52.74
2023-05-21T22:57:09.990Z,52.41
2023-05-21T22:59:42.418Z,53.07
2023-05-21T23:02:16.520Z,53.03
2023-05-21T23:04:49.429Z,53.23
2023-05-21T23:07:21.775Z,53.15
2023-05-21T23:09:53.970Z,53.22
2023-05-21T23:12:26.372Z,53.27
2023-05-21T23:14:58.606Z,53.67
2023-05-21T23:17:30.865Z,53.53
2023-05-21T23:20:03.230Z,53.86
2023-05-21T23:22:35.565Z,54.00
2023-05-21T23:25:09.946Z,54.22
2023-05-21T23:27:42.318Z,54.44
2023-05-21T23:30:15.000Z,54.66
2023-05-21T23:32:47.261Z,54.63
2023-05-21T23:35:19.786Z,54.77
2023-05-21T23:37:51.772Z,55.04
2023-05-21T23:40:24.012Z,54.88
2023-05-21T23:42:56.130Z,55.03
2023-05-21T23:45:28.538Z,55.22
2023-05-21T23:48:00.816Z,55.16
2023-05-21T23:50:33.206Z,54.86
2023-05-21T23:53:05.623Z,55.38
2023-05-21T23:55:38.308Z,55.25
2023-05-21T23:58:10.494Z,55.28
